sensor_id;sensor_type;location;lat;lon;timestamp;pressure;altitude;pressure_sealevel;temperature;humidity
14232;BME280;7200;52.194;9.900;2022-07-29T00:02:06;100688.88;;;17.09;73.94
14232;BME280;7200;52.194;9.900;2022-07-29T00:04:34;100671.38;;;16.89;74.95
14232;BME280;7200;52.194;9.900;2022-07-29T00:07:00;100703.78;;;16.98;75.19
14232;BME280;7200;52.194;9.900;2022-07-29T00:09:25;100694.59;;;16.87;76.69
14232;BME280;7200;52.194;9.900;2022-07-29T00:11:50;100713.47;;;16.84;77.36
14232;BME280;7200;52.194;9.900;2022-07-29T00:14:15;100714.03;;;16.89;76.88
14232;BME280;7200;52.194;9.900;2022-07-29T00:16:41;100709.22;;;16.96;75.85
14232;BME280;7200;52.194;9.900;2022-07-29T00:19:06;100703.72;;;16.99;75.41
14232;BME280;7200;52.194;9.900;2022-07-29T00:21:31;100683.28;;;16.84;76.11
14232;BME280;7200;52.194;9.900;2022-07-29T00:23:57;100666.38;;;16.69;76.84
14232;BME280;7200;52.194;9.900;2022-07-29T00:26:22;100699.09;;;16.87;75.85
14232;BME280;7200;52.194;9.900;2022-07-29T00:28:47;100700.44;;;16.94;75.71
14232;BME280;7200;52.194;9.900;2022-07-29T00:31:13;100692.28;;;16.97;74.92
14232;BME280;7200;52.194;9.900;2022-07-29T00:33:38;100679.13;;;16.94;74.46
14232;BME280;7200;52.194;9.900;2022-07-29T00:36:04;100646.91;;;16.67;76.44
14232;BME280;7200;52.194;9.900;2022-07-29T00:38:29;100670.91;;;16.67;77.23
14232;BME280;7200;52.194;9.900;2022-07-29T00:40:54;100694.72;;;16.70;77.76
14232;BME280;7200;52.194;9.900;2022-07-29T00:43:20;100704.44;;;16.71;78.10
14232;BME280;7200;52.194;9.900;2022-07-29T00:45:45;100703.47;;;16.72;78.02
14232;BME280;7200;52.194;9.900;2022-07-29T00:48:10;100705.78;;;16.78;78.14
14232;BME280;7200;52.194;9.900;2022-07-29T00:50:37;100707.38;;;16.82;77.80
14232;BME280;7200;52.194;9.900;2022-07-29T00:53:04;100689.97;;;16.75;78.43
14232;BME280;7200;52.194;9.900;2022-07-29T00:55:31;100689.13;;;16.74;78.29
14232;BME280;7200;52.194;9.900;2022-07-29T00:57:58;100683.53;;;16.79;77.79
14232;BME280;7200;52.194;9.900;2022-07-29T01:00:25;100661.22;;;16.66;78.23
14232;BME280;7200;52.194;9.900;2022-07-29T01:02:51;100654.88;;;16.52;78.95
14232;BME280;7200;52.194;9.900;2022-07-29T01:05:19;100663.13;;;16.48;79.52
14232;BME280;7200;52.194;9.900;2022-07-29T01:07:46;100676.88;;;16.56;79.27
14232;BME280;7200;52.194;9.900;2022-07-29T01:10:13;100683.38;;;16.66;78.22
14232;BME280;7200;52.194;9.900;2022-07-29T01:12:40;100669.13;;;16.67;77.32
14232;BME280;7200;52.194;9.900;2022-07-29T01:15:07;100615.47;;;16.27;79.50
14232;BME280;7200;52.194;9.900;2022-07-29T01:26:13;100662.28;;;16.15;81.99
14232;BME280;7200;52.194;9.900;2022-07-29T01:31:10;100677.81;;;16.23;81.84
14232;BME280;7200;52.194;9.900;2022-07-29T01:33:39;100684.97;;;16.23;81.96
14232;BME280;7200;52.194;9.900;2022-07-29T01:36:45;100675.66;;;16.14;82.18
14232;BME280;7200;52.194;9.900;2022-07-29T01:39:16;100685.13;;;16.20;82.30
14232;BME280;7200;52.194;9.900;2022-07-29T01:41:50;100690.28;;;16.23;81.72
14232;BME280;7200;52.194;9.900;2022-07-29T01:44:24;100674.31;;;16.23;81.35
14232;BME280;7200;52.194;9.900;2022-07-29T01:46:58;100665.22;;;16.11;82.25
14232;BME280;7200;52.194;9.900;2022-07-29T01:49:27;100662.56;;;16.11;82.01
14232;BME280;7200;52.194;9.900;2022-07-29T01:51:57;100675.09;;;16.09;82.86
14232;BME280;7200;52.194;9.900;2022-07-29T01:57:00;100653.84;;;15.91;83.46
14232;BME280;7200;52.194;9.900;2022-07-29T01:59:29;100657.13;;;15.81;83.96
14232;BME280;7200;52.194;9.900;2022-07-29T02:01:58;100667.38;;;15.71;84.78
14232;BME280;7200;52.194;9.900;2022-07-29T02:04:26;100660.66;;;15.64;85.26
14232;BME280;7200;52.194;9.900;2022-07-29T02:06:54;100682.25;;;15.75;85.32
14232;BME280;7200;52.194;9.900;2022-07-29T02:09:23;100682.19;;;15.76;85.02
14232;BME280;7200;52.194;9.900;2022-07-29T02:11:53;100684.66;;;15.80;85.24
14232;BME280;7200;52.194;9.900;2022-07-29T02:14:21;100676.88;;;15.76;85.42
14232;BME280;7200;52.194;9.900;2022-07-29T02:16:48;100664.81;;;15.69;85.58
14232;BME280;7200;52.194;9.900;2022-07-29T02:19:17;100671.22;;;15.65;85.78
14232;BME280;7200;52.194;9.900;2022-07-29T02:21:44;100668.81;;;15.61;85.94
14232;BME280;7200;52.194;9.900;2022-07-29T02:24:11;100676.13;;;15.73;85.43
14232;BME280;7200;52.194;9.900;2022-07-29T02:26:38;100676.06;;;15.74;85.19
14232;BME280;7200;52.194;9.900;2022-07-29T02:29:06;100692.16;;;15.89;84.93
14232;BME280;7200;52.194;9.900;2022-07-29T02:31:34;100675.13;;;15.91;84.82
14232;BME280;7200;52.194;9.900;2022-07-29T02:34:02;100676.94;;;15.91;85.12
14232;BME280;7200;52.194;9.900;2022-07-29T02:36:29;100682.69;;;15.99;84.20
14232;BME280;7200;52.194;9.900;2022-07-29T02:38:56;100665.88;;;15.99;83.74
14232;BME280;7200;52.194;9.900;2022-07-29T02:41:27;100686.75;;;16.06;84.38
14232;BME280;7200;52.194;9.900;2022-07-29T02:43:57;100683.31;;;16.04;84.68
14232;BME280;7200;52.194;9.900;2022-07-29T02:46:34;100672.94;;;16.00;84.83
14232;BME280;7200;52.194;9.900;2022-07-29T02:49:15;100673.09;;;15.96;85.17
14232;BME280;7200;52.194;9.900;2022-07-29T02:51:45;100668.13;;;15.90;85.23
14232;BME280;7200;52.194;9.900;2022-07-29T02:54:18;100679.63;;;15.91;85.57
14232;BME280;7200;52.194;9.900;2022-07-29T02:56:45;100672.59;;;15.90;85.48
14232;BME280;7200;52.194;9.900;2022-07-29T02:59:13;100680.31;;;15.94;85.41
14232;BME280;7200;52.194;9.900;2022-07-29T03:01:42;100675.53;;;16.01;85.02
14232;BME280;7200;52.194;9.900;2022-07-29T03:04:09;100660.47;;;16.00;84.51
14232;BME280;7200;52.194;9.900;2022-07-29T03:06:37;100664.25;;;15.96;85.26
14232;BME280;7200;52.194;9.900;2022-07-29T03:09:03;100655.25;;;15.83;86.49
14232;BME280;7200;52.194;9.900;2022-07-29T03:11:29;100657.38;;;15.76;87.24
14232;BME280;7200;52.194;9.900;2022-07-29T03:13:55;100661.94;;;15.72;87.43
14232;BME280;7200;52.194;9.900;2022-07-29T03:16:21;100658.59;;;15.69;87.26
14232;BME280;7200;52.194;9.900;2022-07-29T03:18:48;100674.09;;;15.78;86.69
14232;BME280;7200;52.194;9.900;2022-07-29T03:21:14;100673.88;;;15.83;86.34
14232;BME280;7200;52.194;9.900;2022-07-29T03:23:43;100665.00;;;15.82;86.17
14232;BME280;7200;52.194;9.900;2022-07-29T03:26:10;100658.44;;;15.72;86.78
14232;BME280;7200;52.194;9.900;2022-07-29T03:28:35;100657.38;;;15.76;86.61
14232;BME280;7200;52.194;9.900;2022-07-29T03:31:01;100670.25;;;15.84;86.46
14232;BME280;7200;52.194;9.900;2022-07-29T03:33:26;100661.94;;;15.90;85.36
14232;BME280;7200;52.194;9.900;2022-07-29T03:35:53;100635.56;;;15.85;84.81
14232;BME280;7200;52.194;9.900;2022-07-29T03:38:20;100643.56;;;15.85;85.00
14232;BME280;7200;52.194;9.900;2022-07-29T03:40:55;100657.97;;;15.81;85.32
14232;BME280;7200;52.194;9.900;2022-07-29T03:43:22;100657.59;;;15.71;86.18
14232;BME280;7200;52.194;9.900;2022-07-29T03:45:51;100659.78;;;15.63;87.17
14232;BME280;7200;52.194;9.900;2022-07-29T03:48:19;100677.06;;;15.72;86.82
14232;BME280;7200;52.194;9.900;2022-07-29T03:50:46;100675.13;;;15.75;86.88
14232;BME280;7200;52.194;9.900;2022-07-29T03:53:11;100661.84;;;15.75;86.90
14232;BME280;7200;52.194;9.900;2022-07-29T03:55:41;100669.81;;;15.75;86.69
14232;BME280;7200;52.194;9.900;2022-07-29T03:58:08;100664.56;;;15.74;86.55
14232;BME280;7200;52.194;9.900;2022-07-29T04:00:36;100629.59;;;15.48;87.44
14232;BME280;7200;52.194;9.900;2022-07-29T04:03:03;100671.09;;;15.51;88.75
14232;BME280;7200;52.194;9.900;2022-07-29T04:05:29;100680.56;;;15.56;88.68
14232;BME280;7200;52.194;9.900;2022-07-29T04:07:55;100703.81;;;15.86;87.95
14232;BME280;7200;52.194;9.900;2022-07-29T04:10:20;100670.16;;;15.85;86.94
14232;BME280;7200;52.194;9.900;2022-07-29T04:12:45;100670.50;;;15.95;85.84
14232;BME280;7200;52.194;9.900;2022-07-29T04:15:11;100674.81;;;15.98;86.08
14232;BME280;7200;52.194;9.900;2022-07-29T04:17:36;100672.59;;;15.90;86.98
14232;BME280;7200;52.194;9.900;2022-07-29T04:20:02;100676.25;;;15.87;87.25
14232;BME280;7200;52.194;9.900;2022-07-29T04:22:28;100688.38;;;15.93;86.90
14232;BME280;7200;52.194;9.900;2022-07-29T04:24:53;100649.53;;;15.73;87.37
14232;BME280;7200;52.194;9.900;2022-07-29T04:27:19;100667.47;;;15.69;88.68
14232;BME280;7200;52.194;9.900;2022-07-29T04:29:44;100666.56;;;15.69;88.74
14232;BME280;7200;52.194;9.900;2022-07-29T04:32:09;100665.81;;;15.67;88.40
14232;BME280;7200;52.194;9.900;2022-07-29T04:34:34;100694.38;;;15.81;87.79
14232;BME280;7200;52.194;9.900;2022-07-29T04:37:00;100687.53;;;15.92;87.00
14232;BME280;7200;52.194;9.900;2022-07-29T04:39:25;100687.84;;;15.86;87.51
14232;BME280;7200;52.194;9.900;2022-07-29T04:41:51;100658.53;;;15.70;87.72
14232;BME280;7200;52.194;9.900;2022-07-29T04:44:16;100687.25;;;15.81;87.86
14232;BME280;7200;52.194;9.900;2022-07-29T04:46:41;100678.66;;;15.76;87.97
14232;BME280;7200;52.194;9.900;2022-07-29T04:49:07;100689.56;;;15.87;87.64
14232;BME280;7200;52.194;9.900;2022-07-29T04:51:33;100706.91;;;15.94;87.78
14232;BME280;7200;52.194;9.900;2022-07-29T04:53:58;100700.47;;;15.99;87.56
14232;BME280;7200;52.194;9.900;2022-07-29T04:56:23;100694.22;;;16.00;86.98
14232;BME280;7200;52.194;9.900;2022-07-29T04:58:49;100706.25;;;16.07;86.74
14232;BME280;7200;52.194;9.900;2022-07-29T05:01:14;100707.63;;;16.14;86.11
14232;BME280;7200;52.194;9.900;2022-07-29T05:03:40;100716.81;;;16.24;86.28
14232;BME280;7200;52.194;9.900;2022-07-29T05:06:09;100724.22;;;16.35;86.36
14232;BME280;7200;52.194;9.900;2022-07-29T05:08:34;100701.78;;;16.39;85.00
14232;BME280;7200;52.194;9.900;2022-07-29T05:10:59;100653.69;;;16.10;85.38
14232;BME280;7200;52.194;9.900;2022-07-29T05:13:25;100678.78;;;16.22;85.73
14232;BME280;7200;52.194;9.900;2022-07-29T05:15:50;100678.72;;;16.24;85.64
14232;BME280;7200;52.194;9.900;2022-07-29T05:18:15;100696.13;;;16.29;85.26
14232;BME280;7200;52.194;9.900;2022-07-29T05:20:41;100705.31;;;16.40;85.29
14232;BME280;7200;52.194;9.900;2022-07-29T05:23:07;100704.03;;;16.47;85.30
14232;BME280;7200;52.194;9.900;2022-07-29T05:25:32;100689.34;;;16.40;85.58
14232;BME280;7200;52.194;9.900;2022-07-29T05:27:57;100697.41;;;16.38;85.79
14232;BME280;7200;52.194;9.900;2022-07-29T05:30:23;100703.19;;;16.46;85.62
14232;BME280;7200;52.194;9.900;2022-07-29T05:32:48;100706.56;;;16.64;83.95
14232;BME280;7200;52.194;9.900;2022-07-29T05:35:14;100680.13;;;16.45;84.70
14232;BME280;7200;52.194;9.900;2022-07-29T05:37:39;100679.22;;;16.46;85.05
14232;BME280;7200;52.194;9.900;2022-07-29T05:40:05;100702.78;;;16.68;85.01
14232;BME280;7200;52.194;9.900;2022-07-29T05:42:31;100695.78;;;16.82;84.12
14232;BME280;7200;52.194;9.900;2022-07-29T05:44:56;100702.84;;;16.99;83.72
14232;BME280;7200;52.194;9.900;2022-07-29T05:47:22;100696.41;;;17.17;82.88
14232;BME280;7200;52.194;9.900;2022-07-29T05:49:47;100671.56;;;17.17;82.88
14232;BME280;7200;52.194;9.900;2022-07-29T05:52:14;100643.94;;;17.03;82.57
14232;BME280;7200;52.194;9.900;2022-07-29T05:54:39;100687.47;;;17.18;82.75
14232;BME280;7200;52.194;9.900;2022-07-29T05:57:05;100670.34;;;17.22;81.70
14232;BME280;7200;52.194;9.900;2022-07-29T05:59:39;100660.16;;;17.15;81.87
14232;BME280;7200;52.194;9.900;2022-07-29T06:02:05;100650.78;;;17.07;81.59
14232;BME280;7200;52.194;9.900;2022-07-29T06:04:31;100669.44;;;17.07;82.29
14232;BME280;7200;52.194;9.900;2022-07-29T06:06:56;100641.13;;;16.90;82.46
14232;BME280;7200;52.194;9.900;2022-07-29T06:09:22;100640.75;;;16.82;83.40
14232;BME280;7200;52.194;9.900;2022-07-29T06:11:48;100659.13;;;16.87;84.06
14232;BME280;7200;52.194;9.900;2022-07-29T06:14:13;100685.06;;;16.99;83.23
14232;BME280;7200;52.194;9.900;2022-07-29T06:16:39;100683.31;;;16.98;83.62
14232;BME280;7200;52.194;9.900;2022-07-29T06:19:04;100705.56;;;17.13;83.85
14232;BME280;7200;52.194;9.900;2022-07-29T06:21:29;100691.75;;;17.21;82.83
14232;BME280;7200;52.194;9.900;2022-07-29T06:23:55;100693.28;;;17.25;83.01
14232;BME280;7200;52.194;9.900;2022-07-29T06:26:20;100704.88;;;17.54;81.65
14232;BME280;7200;52.194;9.900;2022-07-29T06:28:45;100680.84;;;17.68;80.31
14232;BME280;7200;52.194;9.900;2022-07-29T06:31:10;100657.97;;;17.64;80.00
14232;BME280;7200;52.194;9.900;2022-07-29T06:33:36;100657.88;;;17.66;80.07
14232;BME280;7200;52.194;9.900;2022-07-29T06:36:04;100678.34;;;17.80;79.50
14232;BME280;7200;52.194;9.900;2022-07-29T06:38:29;100660.38;;;17.69;80.20
14232;BME280;7200;52.194;9.900;2022-07-29T06:40:55;100668.94;;;17.74;80.08
14232;BME280;7200;52.194;9.900;2022-07-29T06:43:38;100666.25;;;17.74;80.43
14232;BME280;7200;52.194;9.900;2022-07-29T06:46:05;100678.47;;;17.78;80.14
14232;BME280;7200;52.194;9.900;2022-07-29T06:48:32;100690.50;;;17.85;80.36
14232;BME280;7200;52.194;9.900;2022-07-29T06:50:58;100696.41;;;18.05;79.58
14232;BME280;7200;52.194;9.900;2022-07-29T06:53:25;100672.66;;;18.00;79.62
14232;BME280;7200;52.194;9.900;2022-07-29T06:55:50;100668.72;;;18.06;79.49
14232;BME280;7200;52.194;9.900;2022-07-29T06:58:16;100702.53;;;18.34;79.24
14232;BME280;7200;52.194;9.900;2022-07-29T07:00:43;100691.72;;;18.50;78.56
14232;BME280;7200;52.194;9.900;2022-07-29T07:03:09;100675.41;;;18.82;76.87
14232;BME280;7200;52.194;9.900;2022-07-29T07:05:35;100642.94;;;18.74;76.49
14232;BME280;7200;52.194;9.900;2022-07-29T07:08:00;100649.91;;;18.76;76.43
14232;BME280;7200;52.194;9.900;2022-07-29T07:10:25;100677.56;;;18.90;76.54
14232;BME280;7200;52.194;9.900;2022-07-29T07:12:50;100657.13;;;18.89;76.20
14232;BME280;7200;52.194;9.900;2022-07-29T07:15:16;100647.06;;;18.92;75.45
14232;BME280;7200;52.194;9.900;2022-07-29T07:17:41;100652.88;;;18.99;75.40
14232;BME280;7200;52.194;9.900;2022-07-29T07:20:07;100666.69;;;19.31;73.99
14232;BME280;7200;52.194;9.900;2022-07-29T07:22:32;100674.84;;;19.55;74.20
14232;BME280;7200;52.194;9.900;2022-07-29T07:24:57;100653.00;;;19.74;72.51
14232;BME280;7200;52.194;9.900;2022-07-29T07:27:23;100655.44;;;19.64;74.39
14232;BME280;7200;52.194;9.900;2022-07-29T07:29:48;100634.56;;;19.57;74.66
14232;BME280;7200;52.194;9.900;2022-07-29T07:32:13;100599.81;;;19.44;73.48
14232;BME280;7200;52.194;9.900;2022-07-29T07:34:41;100602.69;;;19.41;73.25
14232;BME280;7200;52.194;9.900;2022-07-29T07:37:06;100628.59;;;19.40;73.97
14232;BME280;7200;52.194;9.900;2022-07-29T07:39:32;100629.75;;;19.49;73.57
14232;BME280;7200;52.194;9.900;2022-07-29T07:41:58;100656.31;;;19.65;73.18
14232;BME280;7200;52.194;9.900;2022-07-29T07:44:23;100658.53;;;19.97;71.14
14232;BME280;7200;52.194;9.900;2022-07-29T07:46:48;100666.84;;;20.05;71.94
14232;BME280;7200;52.194;9.900;2022-07-29T07:49:14;100657.06;;;20.17;71.19
14232;BME280;7200;52.194;9.900;2022-07-29T07:51:39;100623.78;;;20.08;71.51
14232;BME280;7200;52.194;9.900;2022-07-29T07:54:04;100626.75;;;20.16;70.98
14232;BME280;7200;52.194;9.900;2022-07-29T07:56:30;100611.41;;;20.18;70.56
14232;BME280;7200;52.194;9.900;2022-07-29T07:58:55;100645.56;;;20.52;68.91
14232;BME280;7200;52.194;9.900;2022-07-29T08:01:20;100637.88;;;20.71;68.65
14232;BME280;7200;52.194;9.900;2022-07-29T08:03:48;100634.25;;;20.72;69.52
14232;BME280;7200;52.194;9.900;2022-07-29T08:06:13;100616.69;;;20.68;69.31
14232;BME280;7200;52.194;9.900;2022-07-29T08:08:39;100641.00;;;20.89;68.74
14232;BME280;7200;52.194;9.900;2022-07-29T08:11:04;100635.09;;;21.19;67.26
14232;BME280;7200;52.194;9.900;2022-07-29T08:13:31;100613.25;;;21.35;65.89
14232;BME280;7200;52.194;9.900;2022-07-29T08:15:57;100606.81;;;21.38;66.44
14232;BME280;7200;52.194;9.900;2022-07-29T08:18:24;100604.50;;;21.45;66.10
14232;BME280;7200;52.194;9.900;2022-07-29T08:20:50;100601.59;;;21.48;66.28
14232;BME280;7200;52.194;9.900;2022-07-29T08:23:15;100627.44;;;21.60;66.39
14232;BME280;7200;52.194;9.900;2022-07-29T08:25:41;100608.19;;;21.66;65.94
14232;BME280;7200;52.194;9.900;2022-07-29T08:28:07;100598.63;;;21.73;64.99
14232;BME280;7200;52.194;9.900;2022-07-29T08:30:32;100563.75;;;21.51;65.99
14232;BME280;7200;52.194;9.900;2022-07-29T08:32:59;100604.75;;;21.53;67.26
14232;BME280;7200;52.194;9.900;2022-07-29T08:35:24;100582.53;;;21.73;65.10
14232;BME280;7200;52.194;9.900;2022-07-29T08:37:51;100598.00;;;21.81;64.83
14232;BME280;7200;52.194;9.900;2022-07-29T08:40:16;100595.94;;;21.85;65.61
14232;BME280;7200;52.194;9.900;2022-07-29T08:42:42;100551.06;;;21.53;66.71
14232;BME280;7200;52.194;9.900;2022-07-29T08:45:08;100531.19;;;21.33;66.96
14232;BME280;7200;52.194;9.900;2022-07-29T08:47:33;100564.38;;;21.54;66.55
14232;BME280;7200;52.194;9.900;2022-07-29T08:50:02;100586.69;;;21.77;65.89
14232;BME280;7200;52.194;9.900;2022-07-29T08:52:29;100550.47;;;21.49;66.96
14232;BME280;7200;52.194;9.900;2022-07-29T08:54:57;100545.13;;;21.49;66.37
14232;BME280;7200;52.194;9.900;2022-07-29T08:57:22;100591.78;;;21.92;65.32
14232;BME280;7200;52.194;9.900;2022-07-29T08:59:50;100617.50;;;22.28;64.32
14232;BME280;7200;52.194;9.900;2022-07-29T09:02:22;100633.06;;;22.46;64.50
14232;BME280;7200;52.194;9.900;2022-07-29T09:04:48;100559.81;;;22.21;64.28
14232;BME280;7200;52.194;9.900;2022-07-29T09:07:15;100586.00;;;22.51;62.83
14232;BME280;7200;52.194;9.900;2022-07-29T09:09:41;100610.34;;;22.92;62.24
14232;BME280;7200;52.194;9.900;2022-07-29T09:12:08;100602.03;;;23.16;61.34
14232;BME280;7200;52.194;9.900;2022-07-29T09:14:33;100595.13;;;23.23;61.69
14232;BME280;7200;52.194;9.900;2022-07-29T09:16:59;100582.47;;;23.14;62.94
14232;BME280;7200;52.194;9.900;2022-07-29T09:19:26;100557.75;;;23.30;60.76
14232;BME280;7200;52.194;9.900;2022-07-29T09:21:53;100539.53;;;23.12;61.99
14232;BME280;7200;52.194;9.900;2022-07-29T09:24:37;100568.06;;;23.56;60.04
14232;BME280;7200;52.194;9.900;2022-07-29T09:27:08;100600.94;;;23.90;60.18
14232;BME280;7200;52.194;9.900;2022-07-29T09:29:35;100557.56;;;24.03;58.98
14232;BME280;7200;52.194;9.900;2022-07-29T09:32:00;100528.63;;;24.05;58.01
14232;BME280;7200;52.194;9.900;2022-07-29T09:34:30;100525.50;;;24.09;58.11
14232;BME280;7200;52.194;9.900;2022-07-29T09:36:57;100521.25;;;24.07;58.57
14232;BME280;7200;52.194;9.900;2022-07-29T09:39:31;100508.63;;;24.07;58.34
14232;BME280;7200;52.194;9.900;2022-07-29T09:41:59;100531.31;;;24.34;57.63
14232;BME280;7200;52.194;9.900;2022-07-29T09:44:25;100520.97;;;24.59;57.12
14232;BME280;7200;52.194;9.900;2022-07-29T09:47:02;100530.19;;;24.66;57.58
14232;BME280;7200;52.194;9.900;2022-07-29T09:49:32;100468.91;;;24.19;58.86
14232;BME280;7200;52.194;9.900;2022-07-29T09:52:05;100477.09;;;24.37;58.01
14232;BME280;7200;52.194;9.900;2022-07-29T09:54:31;100480.38;;;24.60;57.03
14232;BME280;7200;52.194;9.900;2022-07-29T09:57:04;100464.88;;;24.62;56.74
14232;BME280;7200;52.194;9.900;2022-07-29T09:59:30;100449.25;;;24.66;56.49
14232;BME280;7200;52.194;9.900;2022-07-29T10:01:56;100472.84;;;24.54;57.86
14232;BME280;7200;52.194;9.900;2022-07-29T10:04:21;100432.38;;;24.64;56.21
14232;BME280;7200;52.194;9.900;2022-07-29T10:07:01;100463.03;;;24.63;57.15
14232;BME280;7200;52.194;9.900;2022-07-29T10:09:27;100439.28;;;24.76;56.48
14232;BME280;7200;52.194;9.900;2022-07-29T10:12:07;100465.88;;;24.61;57.92
14232;BME280;7200;52.194;9.900;2022-07-29T10:14:34;100440.88;;;24.49;58.68
14232;BME280;7200;52.194;9.900;2022-07-29T10:17:00;100448.72;;;24.90;56.59
14232;BME280;7200;52.194;9.900;2022-07-29T10:19:29;100443.53;;;24.69;57.97
14232;BME280;7200;52.194;9.900;2022-07-29T10:21:59;100487.94;;;25.22;56.63
14232;BME280;7200;52.194;9.900;2022-07-29T10:24:29;100476.75;;;25.44;55.94
14232;BME280;7200;52.194;9.900;2022-07-29T10:26:55;100460.53;;;25.27;57.19
14232;BME280;7200;52.194;9.900;2022-07-29T10:29:21;100456.41;;;25.22;57.25
14232;BME280;7200;52.194;9.900;2022-07-29T10:32:06;100461.66;;;25.52;55.67
14232;BME280;7200;52.194;9.900;2022-07-29T10:38:07;100454.66;;;25.95;54.19
14232;BME280;7200;52.194;9.900;2022-07-29T10:43:36;100385.75;;;24.99;56.98
14232;BME280;7200;52.194;9.900;2022-07-29T10:46:03;100405.53;;;24.90;57.56
14232;BME280;7200;52.194;9.900;2022-07-29T10:48:29;100413.63;;;25.00;57.15
14232;BME280;7200;52.194;9.900;2022-07-29T10:51:00;100404.13;;;24.86;58.30
14232;BME280;7200;52.194;9.900;2022-07-29T10:53:51;100345.41;;;24.33;57.55
14232;BME280;7200;52.194;9.900;2022-07-29T10:56:31;100396.91;;;24.49;58.19
14232;BME280;7200;52.194;9.900;2022-07-29T11:01:47;100429.91;;;24.71;58.90
14232;BME280;7200;52.194;9.900;2022-07-29T11:04:13;100424.69;;;24.59;59.97
14232;BME280;7200;52.194;9.900;2022-07-29T11:09:26;100396.03;;;24.48;59.91
14232;BME280;7200;52.194;9.900;2022-07-29T11:11:52;100435.06;;;24.54;60.76
14232;BME280;7200;52.194;9.900;2022-07-29T11:14:18;100442.56;;;24.70;60.30
14232;BME280;7200;52.194;9.900;2022-07-29T11:17:04;100403.41;;;24.66;59.77
14232;BME280;7200;52.194;9.900;2022-07-29T11:19:30;100414.97;;;24.76;59.75
14232;BME280;7200;52.194;9.900;2022-07-29T11:21:56;100422.34;;;24.84;59.07
14232;BME280;7200;52.194;9.900;2022-07-29T11:24:27;100428.13;;;24.89;59.28
14232;BME280;7200;52.194;9.900;2022-07-29T11:29:39;100397.00;;;24.95;58.67
14232;BME280;7200;52.194;9.900;2022-07-29T11:32:13;100411.69;;;25.10;57.88
14232;BME280;7200;52.194;9.900;2022-07-29T11:34:45;100413.56;;;25.37;56.82
14232;BME280;7200;52.194;9.900;2022-07-29T11:40:08;100407.84;;;25.40;56.69
14232;BME280;7200;52.194;9.900;2022-07-29T11:50:16;100350.50;;;24.83;58.08
14232;BME280;7200;52.194;9.900;2022-07-29T11:52:47;100360.75;;;24.97;57.27
14232;BME280;7200;52.194;9.900;2022-07-29T11:55:20;100393.50;;;25.12;57.68
14232;BME280;7200;52.194;9.900;2022-07-29T11:57:54;100415.16;;;25.30;57.30
14232;BME280;7200;52.194;9.900;2022-07-29T12:00:25;100420.50;;;25.58;56.84
14232;BME280;7200;52.194;9.900;2022-07-29T12:02:51;100378.69;;;25.44;56.40
14232;BME280;7200;52.194;9.900;2022-07-29T12:05:17;100358.22;;;25.23;57.52
14232;BME280;7200;52.194;9.900;2022-07-29T12:07:43;100370.56;;;25.26;57.72
14232;BME280;7200;52.194;9.900;2022-07-29T12:10:08;100393.78;;;25.37;57.57
14232;BME280;7200;52.194;9.900;2022-07-29T12:12:34;100376.13;;;25.60;56.51
14232;BME280;7200;52.194;9.900;2022-07-29T12:15:30;100414.50;;;25.64;57.54
14232;BME280;7200;52.194;9.900;2022-07-29T12:17:55;100393.78;;;25.73;56.41
14232;BME280;7200;52.194;9.900;2022-07-29T12:20:29;100463.53;;;26.23;56.66
14232;BME280;7200;52.194;9.900;2022-07-29T12:22:55;100447.78;;;26.63;54.64
14232;BME280;7200;52.194;9.900;2022-07-29T12:25:23;100447.72;;;26.80;55.12
14232;BME280;7200;52.194;9.900;2022-07-29T12:28:02;100366.53;;;26.54;54.14
14232;BME280;7200;52.194;9.900;2022-07-29T12:30:39;100354.13;;;26.17;56.33
14232;BME280;7200;52.194;9.900;2022-07-29T12:33:19;100340.28;;;25.94;55.36
14232;BME280;7200;52.194;9.900;2022-07-29T12:35:51;100374.66;;;26.02;56.31
14232;BME280;7200;52.194;9.900;2022-07-29T12:38:18;100379.13;;;26.37;55.14
14232;BME280;7200;52.194;9.900;2022-07-29T12:40:46;100388.66;;;26.23;56.03
14232;BME280;7200;52.194;9.900;2022-07-29T12:43:17;100412.28;;;26.66;54.44
14232;BME280;7200;52.194;9.900;2022-07-29T12:45:45;100388.84;;;26.56;55.58
14232;BME280;7200;52.194;9.900;2022-07-29T12:48:11;100395.91;;;26.75;54.77
14232;BME280;7200;52.194;9.900;2022-07-29T12:50:51;100361.28;;;26.53;55.50
14232;BME280;7200;52.194;9.900;2022-07-29T12:53:17;100340.22;;;26.38;55.19
14232;BME280;7200;52.194;9.900;2022-07-29T12:55:45;100400.53;;;26.57;56.49
14232;BME280;7200;52.194;9.900;2022-07-29T12:58:24;100389.84;;;26.55;56.46
14232;BME280;7200;52.194;9.900;2022-07-29T13:01:08;100342.19;;;26.54;54.71
14232;BME280;7200;52.194;9.900;2022-07-29T13:03:54;100348.31;;;26.30;55.88
14232;BME280;7200;52.194;9.900;2022-07-29T13:06:36;100332.06;;;26.30;55.73
14232;BME280;7200;52.194;9.900;2022-07-29T13:09:09;100372.75;;;26.47;56.56
14232;BME280;7200;52.194;9.900;2022-07-29T13:11:38;100353.09;;;26.71;55.31
14232;BME280;7200;52.194;9.900;2022-07-29T13:14:07;100369.50;;;26.69;55.76
14232;BME280;7200;52.194;9.900;2022-07-29T13:16:33;100331.25;;;26.64;55.22
14232;BME280;7200;52.194;9.900;2022-07-29T13:19:12;100346.25;;;27.01;53.22
14232;BME280;7200;52.194;9.900;2022-07-29T13:21:38;100334.72;;;26.91;54.32
14232;BME280;7200;52.194;9.900;2022-07-29T13:24:07;100304.38;;;26.71;53.91
14232;BME280;7200;52.194;9.900;2022-07-29T13:26:33;100336.56;;;26.56;55.96
14232;BME280;7200;52.194;9.900;2022-07-29T13:28:58;100333.00;;;26.90;53.60
14232;BME280;7200;52.194;9.900;2022-07-29T13:31:24;100304.72;;;26.68;55.13
14232;BME280;7200;52.194;9.900;2022-07-29T13:33:50;100311.84;;;26.77;54.34
14232;BME280;7200;52.194;9.900;2022-07-29T13:36:15;100311.97;;;26.67;55.32
14232;BME280;7200;52.194;9.900;2022-07-29T13:38:41;100302.91;;;26.85;54.06
14232;BME280;7200;52.194;9.900;2022-07-29T13:41:06;100298.78;;;26.72;54.91
14232;BME280;7200;52.194;9.900;2022-07-29T13:43:31;100267.88;;;26.83;53.28